Latest Coastal Weather Observations for Marion Reef

IDQ60701

Issued at 9:05 am EST Wednesday 26 November 2014 (issued every 10 minutes, with the page automatically refreshed every 10 minutes)

About coastal observations | Map of coastal stations | Coastal observations for QLD | Marine services | Other Formats
Station Details ID: 200704 Name: MARION REEF Lat: -19.10 Lon: 152.39 Height: 2.0 m
Data from the previous 72 hours. | See also: Recent months for locations in Queensland
Date/Time
EST
Temp

°C
Wind Pressure Rain
since 9am
mm
Weather Cloud Vis
km
Sea
Height
m
Swell
Dir
 
Speed
knots
Gust
knots
hPa Trend Height
m
Period
s
Dir
26/09:00am 25.9 E 17 19 1013.4 - - - - - - - - -
26/08:30am 25.9 E 16 19 1013.4 - - - - - - - - -
26/08:00am 26.2 E 16 19 1013.0 - - - - - - - - -
26/07:30am 26.1 E 17 19 1013.0 - - - - - - - - -
26/07:00am 25.9 ESE 18 20 1012.7 - - - - - - - - -
26/06:30am 26.0 ESE 17 19 1012.8 - - - - - - - - -
26/06:00am 25.7 ESE 18 20 1012.6 - - - - - - - - -
26/05:30am 25.6 ESE 19 22 1012.1 - - - - - - - - -
26/05:00am 25.8 ESE 18 21 1011.7 - - - - - - - - -
26/04:30am 25.6 ESE 20 22 1011.3 - - - - - - - - -
26/04:00am 25.8 ESE 19 22 1011.2 - - - - - - - - -
26/03:30am 25.9 ESE 19 22 1011.1 - - - - - - - - -
26/03:00am 25.8 ESE 18 21 1010.8 - - - - - - - - -
26/02:30am 25.9 ESE 18 21 1011.1 - - - - - - - - -
26/02:00am 25.9 ESE 18 21 1011.1 - - - - - - - - -
26/01:30am 26.0 ESE 19 21 1011.5 - - - - - - - - -
26/01:00am 26.0 ESE 17 19 1011.5 - - - - - - - - -
26/12:30am 26.1 E 15 18 1012.2 - - - - - - - - -
26/12:00am 26.3 ESE 14 16 1012.4 - - - - - - - - -
 
Date/Time
EST
Temp

°C
Wind Pressure Rain
since 9am
mm
Weather Cloud Vis
km
Sea
Height
m
Swell
Dir
 
Speed
knots
Gust
knots
hPa Trend Height
m
Period
s
Dir
25/11:30pm 26.0 E 14 16 1012.8 - - - - - - - - -
25/11:00pm 26.3 E 14 17 1012.9 - - - - - - - - -
25/10:30pm 26.2 E 16 18 1013.2 - - - - - - - - -
25/10:00pm 26.3 E 16 18 1013.1 - - - - - - - - -
25/09:30pm 26.3 E 15 17 1013.0 - - - - - - - - -
25/09:00pm 26.3 E 17 19 1012.5 - - - - - - - - -
25/08:30pm 26.3 E 18 20 1012.2 - - - - - - - - -
25/08:00pm 26.3 E 16 19 1012.1 - - - - - - - - -
25/07:30pm 26.5 E 17 19 1012.1 - - - - - - - - -
25/07:00pm 26.6 E 17 20 1011.8 - - - - - - - - -
25/06:30pm 26.4 E 18 20 1011.5 - - - - - - - - -
25/06:00pm 26.4 E 19 21 1011.1 - - - - - - - - -
25/05:30pm 26.6 E 18 21 1011.0 - - - - - - - - -
25/05:00pm 26.6 E 18 21 1010.7 - - - - - - - - -
25/04:30pm 26.8 E 18 21 1010.6 - - - - - - - - -
25/04:00pm 26.8 E 16 20 1010.5 - - - - - - - - -
25/03:30pm 26.7 E 17 21 1010.6 - - - - - - - - -
25/03:00pm 26.8 E 17 20 1010.6 - - - - - - - - -
25/02:30pm 26.8 E 18 20 1010.8 - - - - - - - - -
25/02:00pm 26.7 E 16 18 1010.9 - - - - - - - - -
25/01:30pm 26.8 E 17 20 1011.2 - - - - - - - - -
25/01:00pm 26.8 E 16 19 1011.4 - - - - - - - - -
25/12:30pm 26.9 E 17 18 1011.8 - - - - - - - - -
25/12:00pm 26.7 E 15 16 1012.1 - - - - - - - - -
25/11:30am 26.6 E 16 18 1012.4 - - - - - - - - -
25/11:00am 26.7 E 13 16 1012.5 - - - - - - - - -
25/10:30am 26.9 E 14 16 1012.9 - - - - - - - - -
25/10:00am 26.6 E 14 16 1013.0 - - - - - - - - -
25/09:30am 26.9 E 14 16 1013.2 - - - - - - - - -
25/09:00am 26.6 E 15 17 1013.1 - - - - - - - - -
25/08:30am 26.7 E 13 15 1013.2 - - - - - - - - -
25/08:00am 26.5 E 12 14 1013.1 - - - - - - - - -
25/07:30am 26.5 E 14 16 1013.1 - - - - - - - - -
25/07:00am 26.5 E 15 17 1012.9 - - - - - - - - -
25/06:30am 26.3 E 15 16 1012.6 - - - - - - - - -
25/06:00am 26.3 E 16 19 1012.4 - - - - - - - - -
25/05:30am 26.1 E 13 15 1012.0 - - - - - - - - -
25/05:00am 26.0 E 11 14 1011.6 - - - - - - - - -
25/04:30am 25.5 E 11 12 1011.5 - - - - - - - - -
25/04:00am 25.2 ESE 12 15 1011.2 - - - - - - - - -
25/03:30am 25.0 ESE 11 12 1011.2 - - - - - - - - -
25/03:00am 24.8 E 9 12 1010.9 - - - - - - - - -
25/02:30am 24.8 E 8 11 1011.2 - - - - - - - - -
25/02:00am 24.7 E 18 22 1011.3 - - - - - - - - -
25/01:30am 25.5 ESE 14 16 1011.8 - - - - - - - - -
25/01:00am 26.0 ESE 15 17 1011.6 - - - - - - - - -
25/12:30am 25.8 ESE 15 17 1012.3 - - - - - - - - -
25/12:00am 25.6 ESE 11 15 1012.4 - - - - - - - - -
 
Date/Time
EST
Temp

°C
Wind Pressure Rain
since 9am
mm
Weather Cloud Vis
km
Sea
Height
m
Swell
Dir
 
Speed
knots
Gust
knots
hPa Trend Height
m
Period
s
Dir
24/11:30pm 25.7 ESE 15 17 1012.9 - - - - - - - - -
24/11:00pm 26.2 SE 15 17 1012.9 - - - - - - - - -
24/10:30pm 26.2 ESE 15 17 1013.2 - - - - - - - - -
24/10:00pm 26.3 ESE 17 19 1013.1 - - - - - - - - -
24/09:30pm 26.4 ESE 16 19 1013.5 - - - - - - - - -
24/09:00pm 26.2 ESE 15 18 1013.2 - - - - - - - - -
24/08:30pm 26.2 SE 15 18 1013.1 - - - - - - - - -
24/08:00pm 26.2 SE 17 19 1012.8 - - - - - - - - -
24/07:30pm 26.5 ESE 17 19 1012.7 - - - - - - - - -
24/07:00pm 26.1 ESE 16 20 1012.5 - - - - - - - - -
24/06:30pm 26.3 ESE 18 21 1012.2 - - - - - - - - -
24/06:00pm 26.3 ESE 17 20 1011.9 - - - - - - - - -
24/05:30pm 26.2 ESE 17 19 1011.7 - - - - - - - - -
24/05:00pm 26.4 ESE 16 19 1011.5 - - - - - - - - -
24/04:30pm 26.2 ESE 17 20 1011.4 - - - - - - - - -
24/04:00pm 26.3 ESE 17 19 1011.3 - - - - - - - - -
24/03:30pm 26.3 ESE 15 18 1011.6 - - - - - - - - -
24/03:00pm 26.5 ESE 17 19 1011.6 - - - - - - - - -
24/02:30pm 26.4 ESE 15 17 1012.2 - - - - - - - - -
24/02:00pm 26.5 ESE 16 19 1012.2 - - - - - - - - -
24/01:30pm 26.1 E 17 19 1012.6 - - - - - - - - -
24/01:00pm 26.2 E 17 18 1012.9 - - - - - - - - -
24/12:30pm 26.3 ESE 15 17 1013.3 - - - - - - - - -
24/12:00pm 26.3 ESE 16 18 1013.4 - - - - - - - - -
24/11:30am 26.1 E 16 18 1013.9 - - - - - - - - -
24/11:00am 26.3 E 16 18 1014.0 - - - - - - - - -
24/10:30am 26.2 E 16 18 1014.4 - - - - - - - - -
24/10:00am 26.2 E 15 17 1014.4 - - - - - - - - -
24/09:30am 26.2 E 15 18 1014.8 - - - - - - - - -
24/09:00am 26.2 E 17 19 1014.7 - - - - - - - - -
24/08:30am 26.3 E 16 19 1014.8 - - - - - - - - -
24/08:00am 26.1 E 16 18 1014.7 - - - - - - - - -
24/07:30am 26.1 E 16 18 1014.9 - - - - - - - - -
24/07:00am 26.1 E 16 19 1014.7 - - - - - - - - -
24/06:30am 26.0 E 14 17 1014.6 - - - - - - - - -
24/06:00am 26.1 E 15 17 1014.2 - - - - - - - - -
24/05:30am 25.6 E 14 16 1013.8 - - - - - - - - -
24/05:00am 25.7 E 14 16 1013.6 - - - - - - - - -
24/04:30am 25.7 E 15 17 1013.5 - - - - - - - - -
24/04:00am 25.9 E 13 15 1013.4 - - - - - - - - -
24/03:30am 25.8 E 14 16 1013.5 - - - - - - - - -
24/03:00am 25.5 E 14 17 1013.4 - - - - - - - - -
24/02:30am 25.7 E 15 17 1013.5 - - - - - - - - -
24/02:00am 25.7 E 14 17 1013.5 - - - - - - - - -
24/01:30am 25.8 E 15 17 1013.8 - - - - - - - - -
24/01:00am 26.0 E 15 17 1014.0 - - - - - - - - -
24/12:30am 25.7 E 16 17 1014.2 - - - - - - - - -
24/12:00am 25.9 E 16 18 1014.4 - - - - - - - - -
 
Date/Time
EST
Temp

°C
Wind Pressure Rain
since 9am
mm
Weather Cloud Vis
km
Sea
Height
m
Swell
Dir
 
Speed
knots
Gust
knots
hPa Trend Height
m
Period
s
Dir
23/11:30pm 26.1 E 16 19 1014.9 - - - - - - - - -
23/11:00pm 26.1 E 16 19 1014.9 - - - - - - - - -
23/10:30pm 25.9 E 17 19 1015.1 - - - - - - - - -
23/10:00pm 26.1 E 17 20 1014.9 - - - - - - - - -
23/09:30pm 26.1 E 18 20 1014.9 - - - - - - - - -
23/09:00pm 26.2 E 17 19 1014.7 - - - - - - - - -
23/08:30pm 26.1 E 18 20 1014.5 - - - - - - - - -
23/08:00pm 26.3 E 16 19 1014.3 - - - - - - - - -
23/07:30pm 26.1 E 17 20 1014.2 - - - - - - - - -
23/07:00pm 26.2 E 17 19 1014.0 - - - - - - - - -
23/06:30pm 26.2 E 17 19 1013.9 - - - - - - - - -
23/06:00pm 26.2 E 17 19 1013.7 - - - - - - - - -
23/05:30pm 26.3 E 17 19 1013.6 - - - - - - - - -
23/05:00pm 26.2 ESE 15 18 1013.3 - - - - - - - - -
23/04:30pm 26.8 ESE 13 15 1013.4 - - - - - - - - -
23/04:00pm 26.6 ESE 14 15 1013.2 - - - - - - - - -
23/03:30pm 26.6 ESE 14 16 1013.3 - - - - - - - - -
23/03:00pm 26.7 E 13 16 1013.2 - - - - - - - - -
23/02:30pm 26.4 E 13 15 1013.4 - - - - - - - - -
23/02:00pm 26.6 E 14 16 1013.5 - - - - - - - - -
23/01:30pm 26.6 E 14 16 1013.8 - - - - - - - - -
23/01:00pm 26.4 E 15 17 1013.9 - - - - - - - - -
23/12:30pm 26.5 E 14 16 1014.4 - - - - - - - - -
23/12:00pm 26.6 E 14 16 1014.6 - - - - - - - - -
23/11:30am 26.6 E 13 15 1014.9 - - - - - - - - -
23/11:00am 26.6 E 14 16 1015.2 - - - - - - - - -
23/10:30am 26.6 E 13 15 1015.6 - - - - - - - - -
23/10:00am 26.7 E 13 15 1015.5 - - - - - - - - -
23/09:30am 26.4 E 13 15 1015.5 - - - - - - - - -

Other Formats:

Comma delimited format used in spreadsheet applications
http://www.bom.gov.au/fwo/IDQ60701/IDQ60701.94298.axf

JavaScript Object Notation format (JSON) in row-major order
http://www.bom.gov.au/fwo/IDQ60701/IDQ60701.94298.json